Time;durP1;ratioP1;P1;durP2;ratioP2;P2;SDS_P1;SDS_P2;PMS_P1;PMS_P2;Temp;Humidity;BMP_temperature;BMP_pressure;BME280_temperature;BME280_humidity;BME280_pressure;Samples;Min_cycle;Max_cycle;Signal;HPM_P1;HPM_P2
2022/12/08 00:00:12;;;;;;;;;39.25;36.25;;;;;8.57;64.23;100912.13;2095979;28;47069;-63
2022/12/08 00:01:15;;;;;;;;;35.25;34.00;;;;;8.58;63.95;100913.88;2096723;28;46048;-67
2022/12/08 00:02:15;;;;;;;;;42.00;35.60;;;;;8.57;64.07;100908.59;2096011;28;46450;-62
2022/12/08 00:03:16;;;;;;;;;38.75;35.50;;;;;8.57;64.07;100909.47;2104058;28;45643;-65
2022/12/08 00:04:16;;;;;;;;;37.25;33.25;;;;;8.59;64.14;100912.09;2104105;28;46835;-65
2022/12/08 00:09:44;;;;;;;;;34.00;33.60;;;;;8.58;64.06;100897.13;2096130;28;46957;-64
2022/12/08 00:10:44;;;;;;;;;41.60;36.20;;;;;8.57;64.03;100896.25;2069909;28;46693;-63
2022/12/08 00:11:45;;;;;;;;;39.00;36.00;;;;;8.56;64.26;100894.50;2070321;28;45862;-63
2022/12/08 00:12:45;;;;;;;;;39.75;36.00;;;;;8.54;63.95;100891.88;2070996;28;46787;-63
2022/12/08 00:13:45;;;;;;;;;33.75;33.00;;;;;8.55;64.13;100888.34;2054068;28;45919;-64
2022/12/08 00:14:46;;;;;;;;;38.00;34.00;;;;;8.54;64.11;100885.72;2053693;28;46934;-63
2022/12/08 00:15:46;;;;;;;;;35.00;32.50;;;;;8.53;64.05;100884.84;2071662;28;46589;-63
2022/12/08 00:16:47;;;;;;;;;37.00;32.25;;;;;8.53;64.31;100887.50;2069982;28;46980;-63
2022/12/08 00:17:47;;;;;;;;;40.25;36.25;;;;;8.52;64.09;100883.09;2070535;28;46309;-63
2022/12/08 00:18:47;;;;;;;;;40.00;35.75;;;;;8.54;64.17;100880.44;2078371;28;46567;-63
2022/12/08 00:19:49;;;;;;;;;37.75;36.00;;;;;8.54;64.30;100881.31;2080081;28;46147;-62
2022/12/08 00:20:54;;;;;;;;;35.00;32.80;;;;;8.55;64.33;100882.19;2070978;28;47154;-64
2022/12/08 00:21:55;;;;;;;;;41.60;37.40;;;;;8.57;64.21;100887.44;2072190;28;46619;-64
2022/12/08 00:22:56;;;;;;;;;43.20;36.60;;;;;8.54;64.33;100881.31;2069940;28;46127;-63
2022/12/08 00:23:56;;;;;;;;;34.50;33.75;;;;;8.53;64.14;100878.69;2071498;28;46565;-64
2022/12/08 00:24:57;;;;;;;;;36.25;34.00;;;;;8.54;64.33;100873.38;2067618;28;46238;-65
2022/12/08 00:26:04;;;;;;;;;40.75;35.50;;;;;8.53;64.19;100871.63;2070480;28;46769;-63
2022/12/08 00:27:05;;;;;;;;;38.80;34.20;;;;;8.53;64.35;100870.75;2069976;28;46314;-62
2022/12/08 00:28:05;;;;;;;;;38.00;35.20;;;;;8.52;64.37;100872.50;2069733;28;46905;-65
2022/12/08 00:29:06;;;;;;;;;38.50;36.00;;;;;8.51;64.28;100872.50;2069779;28;46501;-61
2022/12/08 00:30:07;;;;;;;;;38.25;33.75;;;;;8.52;64.40;100874.28;2071411;28;46492;-62
2022/12/08 00:31:10;;;;;;;;;37.25;34.75;;;;;8.50;64.23;100871.63;2063540;28;46119;-64
2022/12/08 00:32:10;;;;;;;;;40.00;35.00;;;;;8.48;64.29;100870.78;2062624;28;46680;-62
2022/12/08 00:33:11;;;;;;;;;43.50;37.50;;;;;8.47;64.39;100869.03;2071431;28;46359;-63
2022/12/08 00:34:12;;;;;;;;;34.25;33.50;;;;;8.47;64.39;100868.16;2070110;28;46557;-61
2022/12/08 00:35:13;;;;;;;;;38.80;36.20;;;;;8.45;64.36;100873.47;2070534;28;46351;-63
2022/12/08 00:36:13;;;;;;;;;37.25;31.75;;;;;8.45;64.40;100873.47;2071162;28;46999;-62
2022/12/08 00:37:14;;;;;;;;;40.00;33.25;;;;;8.42;64.46;100862.91;2070678;28;46690;-63
2022/12/08 00:38:14;;;;;;;;;37.00;35.00;;;;;8.43;64.24;100863.78;2070929;28;46404;-64
2022/12/08 00:39:16;;;;;;;;;39.75;34.25;;;;;8.43;64.29;100863.78;2053492;28;47156;-63
2022/12/08 00:40:16;;;;;;;;;36.80;32.80;;;;;8.44;64.42;100868.19;2055938;28;45595;-63
2022/12/08 00:42:10;;;;;;;;;38.00;34.00;;;;;8.44;64.23;100866.41;2071241;28;46680;-63
2022/12/08 00:42:43;;;;;;;;;31.60;30.60;;;;;8.43;64.37;100863.78;2070293;28;46465;-64
2022/12/08 00:43:43;;;;;;;;;43.00;35.50;;;;;8.44;64.40;100865.53;2074368;28;46990;-65
2022/12/08 00:44:44;;;;;;;;;44.75;37.00;;;;;8.45;64.49;100864.66;2064806;28;45234;-66
2022/12/08 00:45:44;;;;;;;;;41.40;34.40;;;;;8.46;64.41;100869.03;2062064;28;46921;-66
2022/12/08 00:46:46;;;;;;;;;38.25;36.00;;;;;8.46;64.43;100861.97;2068817;28;46516;-66
2022/12/08 00:47:46;;;;;;;;;39.40;33.20;;;;;8.46;64.43;100859.34;2068838;28;46398;-67
2022/12/08 00:48:46;;;;;;;;;35.25;33.50;;;;;8.46;64.40;100861.97;2079485;28;48585;-65
2022/12/08 00:49:47;;;;;;;;;37.50;34.25;;;;;8.46;64.66;100854.03;2077757;28;46539;-63
2022/12/08 00:50:47;;;;;;;;;44.75;36.50;;;;;8.46;64.56;100854.03;2096636;28;46738;-66
2022/12/08 00:51:47;;;;;;;;;35.75;34.50;;;;;8.47;64.55;100863.72;2096645;28;46286;-63
2022/12/08 00:52:48;;;;;;;;;35.75;33.50;;;;;8.46;64.52;100861.97;2098538;28;46929;-65
2022/12/08 00:53:48;;;;;;;;;39.25;35.50;;;;;8.49;64.56;100858.41;2096904;28;46703;-64
2022/12/08 00:54:48;;;;;;;;;37.50;35.25;;;;;8.49;64.35;100855.78;2087257;28;46323;-63
2022/12/08 00:55:49;;;;;;;;;40.25;34.50;;;;;8.48;64.56;100843.44;2088491;28;46187;-61
2022/12/08 00:56:49;;;;;;;;;34.00;34.00;;;;;8.48;64.26;100852.25;2094890;28;46406;-63
2022/12/08 00:57:50;;;;;;;;;34.00;33.25;;;;;8.48;64.45;100843.44;2096865;28;46130;-63
2022/12/08 00:58:50;;;;;;;;;32.75;29.50;;;;;8.48;64.40;100839.03;2100443;28;46199;-65
2022/12/08 00:59:50;;;;;;;;;33.50;31.00;;;;;8.46;64.54;100843.47;2072688;28;47134;-63
2022/12/08 01:00:50;;;;;;;;;36.00;33.25;;;;;8.46;64.58;100842.59;2071272;28;46168;-62
2022/12/08 01:01:51;;;;;;;;;36.75;35.25;;;;;8.44;64.61;100839.97;2097368;28;46980;-62
2022/12/08 01:02:51;;;;;;;;;43.00;37.50;;;;;8.44;64.51;100839.97;2101077;28;46496;-63
2022/12/08 01:03:51;;;;;;;;;41.50;34.75;;;;;8.45;64.29;100841.72;2098179;28;46598;-62
2022/12/08 01:04:52;;;;;;;;;38.00;36.00;;;;;8.44;64.47;100837.31;2097423;28;46497;-64
2022/12/08 01:05:52;;;;;;;;;38.25;36.00;;;;;8.45;64.57;100835.56;2098064;28;46009;-62
2022/12/08 01:06:52;;;;;;;;;39.00;35.75;;;;;8.43;64.73;100832.06;2102170;28;46646;-64
2022/12/08 01:07:53;;;;;;;;;36.50;33.00;;;;;8.42;64.56;100828.53;2089328;28;46660;-63
2022/12/08 01:08:53;;;;;;;;;35.75;34.50;;;;;8.43;64.60;100835.56;2089140;28;46275;-65
2022/12/08 01:09:53;;;;;;;;;34.25;31.75;;;;;8.42;64.46;100827.66;2096167;28;46052;-65
2022/12/08 01:10:53;;;;;;;;;37.25;33.00;;;;;8.41;64.69;100831.19;2096108;28;46404;-63
2022/12/08 01:11:54;;;;;;;;;41.50;36.75;;;;;8.40;64.66;100832.09;2087845;28;46186;-63
2022/12/08 01:12:54;;;;;;;;;38.75;34.00;;;;;8.40;64.70;100829.44;2063599;28;46327;-63
2022/12/08 01:13:54;;;;;;;;;40.25;36.00;;;;;8.39;64.57;100828.56;2072568;28;46939;-63
2022/12/08 01:14:55;;;;;;;;;39.50;36.50;;;;;8.38;64.65;100828.56;2098068;28;46594;-64
2022/12/08 01:15:55;;;;;;;;;46.00;39.25;;;;;8.37;64.79;100827.69;2098726;28;46367;-61
2022/12/08 01:16:55;;;;;;;;;45.75;38.50;;;;;8.35;64.78;100818.91;2096102;28;46587;-60
2022/12/08 01:17:56;;;;;;;;;48.25;39.50;;;;;8.34;64.94;100824.19;2096041;28;45841;-62
2022/12/08 01:18:58;;;;;;;;;38.50;36.00;;;;;8.34;64.93;100824.19;2098512;28;45034;-62
2022/12/08 01:19:58;;;;;;;;;43.40;37.60;;;;;8.35;64.80;100821.56;2098520;28;45379;-63
2022/12/08 01:21:04;;;;;;;;;46.50;37.75;;;;;8.34;64.97;100819.81;2098144;28;46360;-64
2022/12/08 01:22:04;;;;;;;;;46.00;38.20;;;;;8.34;64.84;100816.25;2098437;28;46783;-63
2022/12/08 01:23:05;;;;;;;;;51.50;43.00;;;;;8.32;64.86;100816.28;2099697;28;46505;-62
2022/12/08 01:24:05;;;;;;;;;50.00;41.00;;;;;8.32;65.04;100815.41;2098508;28;47817;-62
2022/12/08 01:25:06;;;;;;;;;56.00;46.00;;;;;8.31;65.13;100816.28;2098252;28;46293;-62
2022/12/08 01:26:09;;;;;;;;;55.25;45.00;;;;;8.29;65.19;100810.16;2091288;28;46844;-63
2022/12/08 01:27:10;;;;;;;;;54.40;45.60;;;;;8.29;65.41;100815.44;2092347;28;46066;-64
2022/12/08 01:28:10;;;;;;;;;55.50;45.50;;;;;8.30;65.23;100814.53;2092066;28;45679;-64
2022/12/08 01:29:11;;;;;;;;;52.75;44.50;;;;;8.29;65.25;100813.66;2094304;28;46344;-63
2022/12/08 01:30:12;;;;;;;;;49.50;42.50;;;;;8.29;65.21;100805.72;2090228;28;46915;-63
2022/12/08 01:31:16;;;;;;;;;55.75;45.25;;;;;8.29;65.43;100810.16;2091028;28;46392;-62
2022/12/08 01:32:16;;;;;;;;;50.40;41.20;;;;;8.29;65.27;100812.78;2090259;28;46432;-60
2022/12/08 01:33:16;;;;;;;;;54.75;45.00;;;;;8.30;65.25;100806.59;2092094;28;46886;-61
2022/12/08 01:34:17;;;;;;;;;52.25;42.75;;;;;8.28;65.26;100809.28;2091328;28;45836;-62
2022/12/08 01:35:17;;;;;;;;;51.25;42.25;;;;;8.29;65.28;100808.38;2091762;28;46296;-61
2022/12/08 01:36:30;;;;;;;;;51.25;42.00;;;;;8.27;65.41;100810.16;2081525;28;46575;-61
2022/12/08 01:37:30;;;;;;;;;59.00;46.60;;;;;8.25;65.50;100810.16;2085299;28;46101;-64
2022/12/08 01:38:31;;;;;;;;;59.50;47.00;;;;;8.26;65.36;100806.66;2089822;28;46290;-63
2022/12/08 01:39:31;;;;;;;;;56.00;45.75;;;;;8.27;65.35;100808.41;2096085;28;46318;-62
2022/12/08 01:40:31;;;;;;;;;55.75;44.75;;;;;8.27;65.40;100812.81;2085445;28;46088;-62
2022/12/08 01:41:34;;;;;;;;;27.00;22.00;;;;;8.27;65.35;100807.53;2083853;28;46358;-62
2022/12/08 01:42:37;;;;;;;;;57.60;46.80;;;;;8.26;65.49;100806.66;2090909;28;46461;-63
2022/12/08 01:43:55;;;;;;;;;61.40;49.80;;;;;8.26;65.48;100809.28;2091781;28;46576;-63
2022/12/08 01:45:01;;;;;;;;;59.80;49.80;;;;;8.24;65.90;100803.13;2088882;28;46462;-62
2022/12/08 01:46:02;;;;;;;;;55.20;46.40;;;;;8.23;65.73;100808.44;2090748;28;47064;-63
2022/12/08 01:47:03;;;;;;;;;59.50;48.75;;;;;8.23;65.57;100811.94;2092353;28;45203;-63
2022/12/08 01:48:10;;;;;;;;;61.75;51.00;;;;;8.25;65.65;100814.56;2089086;28;46431;-65
2022/12/08 01:49:22;;;;;;;;;56.00;46.40;;;;;8.26;65.77;100813.72;2085534;28;46655;-64
2022/12/08 01:50:23;;;;;;;;;57.00;47.00;;;;;8.25;65.69;100812.78;2086752;28;46400;-63
2022/12/08 01:51:24;;;;;;;;;59.40;47.00;;;;;8.27;65.66;100815.47;2082986;28;45745;-64
2022/12/08 01:52:31;;;;;;;;;64.60;49.80;;;;;8.26;65.88;100808.41;2082284;28;46377;-63
2022/12/08 01:53:32;;;;;;;;;62.00;51.60;;;;;8.28;65.71;100811.91;2088917;28;46909;-64
2022/12/08 01:54:41;;;;;;;;;57.20;47.60;;;;;8.27;65.96;100811.03;2092680;28;46459;-63
2022/12/08 01:55:45;;;;;;;;;63.00;50.80;;;;;8.27;65.76;100805.75;2095052;28;46154;-63
2022/12/08 01:56:59;;;;;;;;;59.00;48.20;;;;;8.26;65.87;100808.41;2091465;28;46883;-63
2022/12/08 01:58:10;;;;;;;;;63.20;51.20;;;;;8.25;65.90;100811.91;2094139;28;46797;-63
2022/12/08 01:59:11;;;;;;;;;60.80;50.40;;;;;8.24;65.85;100813.69;2096742;28;46513;-63
2022/12/08 02:00:15;;;;;;;;;60.75;50.50;;;;;8.25;65.97;100811.91;2098222;28;46701;-63
2022/12/08 02:01:16;;;;;;;;;60.60;51.00;;;;;8.24;66.02;100807.53;2098283;28;46574;-62
2022/12/08 02:02:16;;;;;;;;;60.60;50.40;;;;;8.23;65.93;100806.66;2098019;28;47048;-62
2022/12/08 02:03:40;;;;;;;;;64.00;49.00;;;;;8.25;66.28;100804.00;2098408;28;46672;-63
2022/12/08 02:04:41;;;;;;;;;59.40;48.00;;;;;8.25;66.04;100801.34;2096805;28;46979;-62
2022/12/08 02:05:41;;;;;;;;;56.25;47.00;;;;;8.25;66.13;100799.56;2098149;28;47119;-63
2022/12/08 02:06:45;;;;;;;;;57.50;47.75;;;;;8.26;65.94;100795.19;2098018;28;46415;-63
2022/12/08 02:07:48;;;;;;;;;59.60;49.00;;;;;8.25;65.97;100791.66;2098190;28;47073;-64
2022/12/08 02:08:49;;;;;;;;;59.80;49.20;;;;;8.24;65.89;100792.53;2097008;28;46369;-65
2022/12/08 02:09:50;;;;;;;;;57.20;48.80;;;;;8.23;65.83;100790.78;2095826;28;46891;-63
2022/12/08 02:10:53;;;;;;;;;58.60;49.00;;;;;8.22;65.94;100796.97;2095189;28;45756;-63
2022/12/08 02:11:57;;;;;;;;;60.80;49.60;;;;;8.21;65.93;100791.72;2096699;28;46675;-63
2022/12/08 02:12:59;;;;;;;;;56.40;48.20;;;;;8.20;65.94;100795.25;2096341;28;46273;-61
2022/12/08 02:14:03;;;;;;;;;61.40;49.80;;;;;8.19;66.16;100794.38;2098252;28;45721;-63
2022/12/08 02:15:04;;;;;;;;;56.40;45.80;;;;;8.19;65.97;100801.44;2096694;28;46243;-63
2022/12/08 02:16:17;;;;;;;;;57.20;46.80;;;;;8.18;66.13;100797.03;2076769;28;46324;-63
2022/12/08 02:17:29;;;;;;;;;59.20;49.60;;;;;8.18;65.87;100795.28;2080502;28;45740;-64
2022/12/08 02:18:55;;;;;;;;;60.00;48.00;;;;;8.18;66.24;100797.03;2095849;28;46472;-64
2022/12/08 02:20:32;;;;;;;;;64.40;52.00;;;;;8.17;66.07;100793.53;2096543;28;46603;-64
2022/12/08 02:21:41;;;;;;;;;60.20;48.60;;;;;8.18;66.19;100797.03;2096262;28;46558;-63
2022/12/08 02:22:53;;;;;;;;;50.80;39.80;;;;;8.19;66.07;100798.78;2095634;28;46381;-63
2022/12/08 02:24:16;;;;;;;;;61.20;50.00;;;;;8.19;65.97;100798.78;2096738;28;46784;-63
2022/12/08 02:25:40;;;;;;;;;62.60;49.80;;;;;8.17;66.07;100796.16;2092343;28;46519;-64
2022/12/08 02:27:05;;;;;;;;;63.60;52.00;;;;;8.16;65.95;100794.41;2070822;28;46957;-65
2022/12/08 02:28:08;;;;;;;;;60.60;48.80;;;;;8.15;65.94;100794.44;2070726;28;46497;-63
2022/12/08 02:29:38;;;;;;;;;58.60;47.40;;;;;8.15;66.09;100794.44;2069547;28;46726;-63
2022/12/08 02:31:00;;;;;;;;;51.00;42.80;;;;;8.15;66.02;100797.06;2071073;28;46306;-60
2022/12/08 02:32:06;;;;;;;;;43.60;37.40;;;;;8.12;66.15;100795.31;2069897;28;46602;-63
2022/12/08 02:33:31;;;;;;;;;58.40;48.60;;;;;8.10;65.94;100788.31;2066991;28;45935;-64
2022/12/08 02:34:49;;;;;;;;;55.40;44.40;;;;;8.09;65.91;100784.78;2060506;28;46372;-63
2022/12/08 02:35:55;;;;;;;;;54.40;45.20;;;;;8.08;65.91;100782.16;2063154;28;46814;-63
2022/12/08 02:37:02;;;;;;;;;55.40;45.80;;;;;8.07;66.20;100780.41;2070425;28;45103;-64
2022/12/08 02:38:32;;;;;;;;;59.40;46.40;;;;;8.09;66.24;100781.28;2069368;28;46696;-65
2022/12/08 02:39:54;;;;;;;;;53.00;45.00;;;;;8.09;66.21;100782.13;2042694;28;46466;-62
2022/12/08 02:41:07;;;;;;;;;54.20;45.20;;;;;8.09;66.21;100783.91;2046512;28;46754;-64
2022/12/08 02:42:20;;;;;;;;;52.20;43.80;;;;;8.08;65.91;100784.81;2045956;28;46520;-64
2022/12/08 02:43:42;;;;;;;;;53.60;43.00;;;;;8.07;66.10;100783.06;2043156;28;46716;-61
2022/12/08 02:45:22;;;;;;;;;54.80;43.40;;;;;8.06;66.02;100789.22;2045338;28;45189;-64
2022/12/08 02:46:29;;;;;;;;;44.60;39.20;;;;;8.06;66.62;100778.66;2030740;29;46508;-64
2022/12/08 02:47:32;;;;;;;;;50.20;41.00;;;;;8.07;65.87;100785.69;2023148;29;46679;-63
2022/12/08 02:48:33;;;;;;;;;55.00;42.00;;;;;8.08;66.02;100779.53;2023754;29;46790;-61
2022/12/08 02:49:34;;;;;;;;;51.25;43.00;;;;;8.08;65.78;100776.88;2030777;29;46914;-62
2022/12/08 02:50:35;;;;;;;;;52.20;43.00;;;;;8.07;65.94;100775.13;2030881;29;47601;-64
2022/12/08 02:51:35;;;;;;;;;55.25;44.50;;;;;8.08;66.03;100779.53;2030781;29;46394;-64
2022/12/08 02:52:39;;;;;;;;;45.25;39.25;;;;;8.07;66.09;100773.34;2030753;29;46208;-65
2022/12/08 02:53:40;;;;;;;;;48.00;40.60;;;;;8.07;65.75;100773.34;2030699;29;46522;-64
2022/12/08 02:54:50;;;;;;;;;46.00;40.00;;;;;8.06;65.73;100770.72;2022818;29;46370;-65
2022/12/08 02:56:04;;;;;;;;;46.00;38.00;;;;;8.05;65.59;100767.22;2024723;29;45842;-64
2022/12/08 02:57:08;;;;;;;;;42.40;37.20;;;;;8.06;65.83;100770.72;2030411;29;46973;-63
2022/12/08 02:58:38;;;;;;;;;49.80;41.20;;;;;8.06;65.61;100763.69;2028558;29;46742;-63
2022/12/08 03:00:05;;;;;;;;;45.40;39.80;;;;;8.06;65.87;100761.03;2030584;29;46384;-65
2022/12/08 03:01:19;;;;;;;;;50.40;41.60;;;;;8.07;65.91;100759.28;2014841;29;47408;-64
2022/12/08 03:02:36;;;;;;;;;52.80;41.40;;;;;8.07;65.80;100757.50;2015070;29;46971;-63
2022/12/08 03:03:57;;;;;;;;;49.00;39.60;;;;;8.08;65.75;100766.31;2014566;29;46539;-63
2022/12/08 03:05:18;;;;;;;;;47.80;41.60;;;;;8.10;65.63;100761.88;2021501;29;46983;-62
2022/12/08 03:06:30;;;;;;;;;53.00;42.20;;;;;8.09;65.62;100752.19;2030332;29;47146;-64
2022/12/08 03:07:33;;;;;;;;;51.60;44.60;;;;;8.10;65.59;100751.28;2030772;29;46780;-64
2022/12/08 03:08:55;;;;;;;;;48.40;40.40;;;;;8.09;65.77;100745.13;2030432;29;46277;-65
2022/12/08 03:10:04;;;;;;;;;45.80;40.20;;;;;8.11;65.50;100753.03;2030421;29;46400;-64
2022/12/08 03:11:20;;;;;;;;;46.20;40.00;;;;;8.08;66.09;100747.81;2029966;28;46145;-64
2022/12/08 03:12:38;;;;;;;;;52.60;41.40;;;;;8.07;65.52;100749.56;2030452;29;47067;-63
2022/12/08 03:13:39;;;;;;;;;41.20;37.40;;;;;8.06;65.45;100742.53;2030748;29;45592;-64
2022/12/08 03:14:44;;;;;;;;;48.25;40.00;;;;;8.04;65.58;100746.97;2030670;29;46776;-65
2022/12/08 03:15:49;;;;;;;;;48.60;39.20;;;;;8.05;65.44;100740.78;2030607;29;46879;-64
2022/12/08 03:16:54;;;;;;;;;44.00;37.00;;;;;8.05;65.37;100739.91;2030411;28;46504;-64
2022/12/08 03:17:57;;;;;;;;;38.60;36.40;;;;;8.05;65.34;100740.78;2036985;28;46610;-62
2022/12/08 03:19:08;;;;;;;;;42.20;38.60;;;;;8.04;65.20;100741.69;2036681;28;46621;-63
2022/12/08 03:20:14;;;;;;;;;50.20;40.00;;;;;8.03;65.13;100734.66;2034699;28;47959;-64
2022/12/08 03:21:18;;;;;;;;;47.00;38.20;;;;;8.03;65.09;100742.56;2038506;28;46791;-64
2022/12/08 03:22:23;;;;;;;;;49.00;39.60;;;;;8.03;65.35;100733.78;2043532;28;46842;-65
2022/12/08 03:23:25;;;;;;;;;42.20;36.60;;;;;8.01;65.26;100728.50;2068767;28;46603;-64
2022/12/08 03:24:25;;;;;;;;;44.80;39.40;;;;;8.00;65.23;100733.78;2062395;28;46486;-64
2022/12/08 03:25:30;;;;;;;;;46.75;39.25;;;;;7.98;65.36;100728.53;2061861;28;46811;-64
2022/12/08 03:26:40;;;;;;;;;45.20;38.40;;;;;7.95;65.35;100729.44;2070434;28;46137;-62
2022/12/08 03:27:42;;;;;;;;;49.20;40.80;;;;;7.93;65.15;100731.22;2070667;28;46802;-62
2022/12/08 03:28:42;;;;;;;;;52.20;43.00;;;;;7.90;65.24;100728.63;2070413;28;46528;-62
2022/12/08 03:29:43;;;;;;;;;49.00;40.00;;;;;7.87;65.12;100726.00;2070857;28;46774;-64
2022/12/08 03:30:48;;;;;;;;;44.50;39.00;;;;;7.83;65.10;100728.69;2070632;28;46292;-63
2022/12/08 03:31:56;;;;;;;;;51.00;41.60;;;;;7.80;65.19;100726.09;2070286;28;46382;-64
2022/12/08 03:33:08;;;;;;;;;48.60;40.60;;;;;7.75;65.16;100734.06;2069290;28;46997;-62
2022/12/08 03:34:10;;;;;;;;;37.60;33.60;;;;;7.71;65.43;100718.25;2070567;28;46407;-62
2022/12/08 03:35:15;;;;;;;;;43.40;38.00;;;;;7.68;65.42;100724.44;2070402;28;46559;-62
2022/12/08 03:36:15;;;;;;;;;50.00;42.60;;;;;7.68;65.39;100727.06;2069818;28;46427;-62
2022/12/08 03:37:16;;;;;;;;;42.25;37.25;;;;;7.66;65.49;100726.22;2071154;28;46664;-61
2022/12/08 03:38:17;;;;;;;;;43.00;38.25;;;;;7.65;65.50;100722.72;2072745;28;45392;-61
2022/12/08 03:39:17;;;;;;;;;41.40;36.60;;;;;7.65;65.46;100722.72;2095643;28;46717;-63
2022/12/08 03:40:19;;;;;;;;;52.25;42.50;;;;;7.67;65.40;100728.84;2096246;28;46741;-63
2022/12/08 03:41:21;;;;;;;;;48.80;39.40;;;;;7.66;65.29;100719.19;2095704;28;46909;-62
2022/12/08 03:42:22;;;;;;;;;42.80;35.40;;;;;7.65;65.39;100717.44;2095392;28;46451;-63
2022/12/08 03:43:22;;;;;;;;;49.50;40.00;;;;;7.66;65.31;100721.81;2092687;28;47227;-64
2022/12/08 03:44:22;;;;;;;;;48.25;41.00;;;;;7.66;65.40;100718.31;2088634;28;47152;-63
2022/12/08 03:45:23;;;;;;;;;53.50;44.00;;;;;7.66;65.42;100715.66;2099205;28;46303;-62
2022/12/08 03:46:26;;;;;;;;;46.00;39.25;;;;;7.68;65.49;100720.03;2096004;28;46324;-61
2022/12/08 03:47:26;;;;;;;;;51.60;40.20;;;;;7.68;65.65;100717.38;2094836;28;46572;-63
2022/12/08 03:48:27;;;;;;;;;48.00;37.75;;;;;7.66;65.64;100713.91;2095169;28;46110;-63
2022/12/08 03:49:27;;;;;;;;;50.75;41.25;;;;;7.66;65.44;100707.75;2095769;28;46756;-63
2022/12/08 03:50:27;;;;;;;;;49.75;42.00;;;;;7.64;65.62;100720.09;2096534;28;46523;-62
2022/12/08 03:51:28;;;;;;;;;54.25;42.00;;;;;7.62;65.37;100709.53;2095977;28;45641;-63
2022/12/08 03:52:28;;;;;;;;;48.00;40.75;;;;;7.60;65.37;100716.56;2096072;28;46589;-62
2022/12/08 03:53:29;;;;;;;;;48.50;40.25;;;;;7.57;65.60;100707.81;2096221;28;46306;-63
2022/12/08 03:54:29;;;;;;;;;48.75;40.00;;;;;7.57;65.49;100713.97;2095986;28;46222;-63
2022/12/08 03:55:29;;;;;;;;;49.25;40.00;;;;;7.57;65.76;100707.81;2095495;28;46135;-61
2022/12/08 03:56:36;;;;;;;;;43.75;40.00;;;;;7.56;65.64;100704.31;2095191;28;46893;-61
2022/12/08 03:57:37;;;;;;;;;50.80;40.80;;;;;7.57;65.68;100706.06;2096032;28;45713;-63
2022/12/08 03:58:37;;;;;;;;;46.00;40.25;;;;;7.60;65.69;100702.50;2094129;28;46800;-63
2022/12/08 03:59:37;;;;;;;;;48.75;41.50;;;;;7.58;65.80;100701.63;2095947;28;46468;-62
2022/12/08 04:00:37;;;;;;;;;44.50;39.25;;;;;7.58;65.78;100701.63;2096308;28;46112;-63
2022/12/08 04:01:38;;;;;;;;;54.75;44.00;;;;;7.58;65.80;100704.28;2095896;28;47337;-65
2022/12/08 04:02:38;;;;;;;;;41.00;35.00;;;;;7.57;65.80;100703.41;2102989;28;46239;-63
2022/12/08 04:03:38;;;;;;;;;47.00;39.00;;;;;7.55;65.82;100701.69;2103662;28;46835;-65
2022/12/08 04:04:39;;;;;;;;;45.75;40.25;;;;;7.54;65.67;100703.44;2096317;28;44951;-63
2022/12/08 04:05:39;;;;;;;;;53.25;42.50;;;;;7.52;65.95;100702.59;2089816;28;46142;-61
2022/12/08 04:06:40;;;;;;;;;51.50;42.00;;;;;7.51;65.94;100692.91;2087125;28;46159;-63
2022/12/08 04:07:40;;;;;;;;;48.75;42.25;;;;;7.52;66.08;100701.72;2094478;28;46711;-63
2022/12/08 04:08:41;;;;;;;;;51.75;41.50;;;;;7.53;65.94;100698.19;2096247;28;46653;-64
2022/12/08 04:09:41;;;;;;;;;50.50;41.00;;;;;7.53;65.99;100699.06;2096355;28;46067;-63
2022/12/08 04:10:41;;;;;;;;;46.00;39.25;;;;;7.52;65.81;100704.34;2089405;28;46290;-62
2022/12/08 04:11:42;;;;;;;;;48.75;40.50;;;;;7.50;65.80;100701.72;2086677;28;46954;-64
2022/12/08 04:12:42;;;;;;;;;51.00;40.50;;;;;7.48;65.70;100692.94;2095080;28;46838;-61
2022/12/08 04:13:43;;;;;;;;;45.25;39.25;;;;;7.45;65.70;100697.38;2095936;28;46614;-63
2022/12/08 04:14:43;;;;;;;;;49.25;40.00;;;;;7.41;65.80;100696.53;2096297;28;46466;-61
2022/12/08 04:15:45;;;;;;;;;46.00;37.25;;;;;7.40;65.66;100696.56;2096172;28;45379;-63
2022/12/08 04:16:45;;;;;;;;;48.00;40.60;;;;;7.40;65.86;100700.06;2095922;28;46735;-63
2022/12/08 04:17:45;;;;;;;;;48.50;40.50;;;;;7.38;65.97;100697.44;2096218;28;46599;-63
2022/12/08 04:18:46;;;;;;;;;51.25;40.75;;;;;7.41;66.13;100693.88;2095849;28;46603;-61
2022/12/08 04:19:46;;;;;;;;;52.00;43.25;;;;;7.41;66.05;100690.38;2095993;28;46447;-61
2022/12/08 04:20:46;;;;;;;;;44.25;37.00;;;;;7.43;65.87;100692.09;2096060;28;46508;-62
2022/12/08 04:21:47;;;;;;;;;52.00;43.00;;;;;7.45;65.61;100690.31;2096040;28;46301;-61
2022/12/08 04:22:47;;;;;;;;;52.25;42.00;;;;;7.45;66.00;100692.97;2096029;28;46697;-59
2022/12/08 04:23:48;;;;;;;;;43.75;36.50;;;;;7.46;65.59;100691.19;2095747;28;46411;-62
2022/12/08 04:24:48;;;;;;;;;45.25;38.50;;;;;7.44;65.69;100692.97;2095696;28;46396;-62
2022/12/08 04:25:50;;;;;;;;;45.50;38.00;;;;;7.42;65.96;100690.34;2093068;28;44958;-63
2022/12/08 04:26:51;;;;;;;;;50.00;40.20;;;;;7.42;65.72;100686.84;2095298;28;46563;-63
2022/12/08 04:27:51;;;;;;;;;48.50;41.50;;;;;7.41;65.85;100687.72;2096497;28;46053;-63
2022/12/08 04:28:51;;;;;;;;;52.00;44.50;;;;;7.40;65.64;100684.22;2095653;28;46266;-62
2022/12/08 04:29:52;;;;;;;;;48.50;41.50;;;;;7.39;65.81;100682.47;2095977;28;46508;-62
2022/12/08 04:30:52;;;;;;;;;52.75;40.25;;;;;7.38;65.92;100684.25;2095741;28;46544;-61
2022/12/08 04:31:52;;;;;;;;;49.75;39.75;;;;;7.38;65.97;100678.97;2095555;28;46042;-62
2022/12/08 04:32:52;;;;;;;;;48.50;40.50;;;;;7.40;65.77;100675.44;2093082;28;46270;-63
2022/12/08 04:33:53;;;;;;;;;42.75;38.00;;;;;7.40;65.85;100673.66;2095685;28;47198;-64
2022/12/08 04:34:53;;;;;;;;;48.50;40.50;;;;;7.41;65.94;100672.75;2095869;28;46528;-63
2022/12/08 04:35:53;;;;;;;;;48.50;42.00;;;;;7.42;65.94;100674.50;2095922;28;47034;-62
2022/12/08 04:36:54;;;;;;;;;41.75;35.50;;;;;7.42;65.69;100665.72;2095676;28;46150;-61
2022/12/08 04:37:54;;;;;;;;;50.25;43.00;;;;;7.41;65.63;100670.13;2095534;28;47093;-62
2022/12/08 04:38:54;;;;;;;;;45.75;39.50;;;;;7.40;65.71;100670.16;2093782;28;46535;-63
2022/12/08 04:39:55;;;;;;;;;54.00;43.25;;;;;7.39;65.96;100664.00;2095762;28;45362;-63
2022/12/08 04:40:55;;;;;;;;;32.50;28.25;;;;;7.39;66.07;100664.00;2095486;28;46746;-63
2022/12/08 04:41:55;;;;;;;;;45.00;38.00;;;;;7.38;65.92;100671.03;2095978;28;46234;-62
2022/12/08 04:42:56;;;;;;;;;46.75;37.50;;;;;7.38;66.06;100668.41;2096228;28;46405;-63
2022/12/08 04:43:56;;;;;;;;;45.75;40.50;;;;;7.38;65.93;100667.53;2095884;28;47040;-62
2022/12/08 04:44:56;;;;;;;;;48.00;39.25;;;;;7.37;66.08;100661.38;2095793;28;46471;-62
2022/12/08 04:45:57;;;;;;;;;42.75;37.50;;;;;7.39;65.85;100666.63;2095907;28;46594;-61
2022/12/08 04:46:57;;;;;;;;;48.50;41.25;;;;;7.37;66.10;100666.66;2095188;28;46416;-63
2022/12/08 04:47:59;;;;;;;;;49.00;41.25;;;;;7.37;66.17;100666.66;2095378;28;46421;-62
2022/12/08 04:48:59;;;;;;;;;48.20;40.40;;;;;7.37;65.97;100664.00;2095788;28;46916;-63
2022/12/08 04:49:59;;;;;;;;;46.75;39.50;;;;;7.36;66.05;100661.34;2095512;28;46723;-62
2022/12/08 04:50:59;;;;;;;;;47.00;38.50;;;;;7.35;65.81;100665.75;2095975;28;46803;-62
2022/12/08 04:52:00;;;;;;;;;52.00;41.00;;;;;7.36;65.94;100662.22;2095175;28;46398;-62
2022/12/08 04:53:00;;;;;;;;;42.25;33.75;;;;;7.36;66.13;100659.59;2095855;28;46571;-63
2022/12/08 04:54:00;;;;;;;;;31.75;26.25;;;;;7.38;65.90;100659.59;2095797;28;46979;-63
2022/12/08 04:55:02;;;;;;;;;44.50;37.75;;;;;7.38;66.04;100656.97;2095757;28;46608;-61
2022/12/08 04:56:02;;;;;;;;;51.40;40.40;;;;;7.40;66.06;100656.94;2094000;28;46564;-60
2022/12/08 04:57:03;;;;;;;;;45.25;38.75;;;;;7.41;65.91;100650.78;2093885;28;46340;-62
2022/12/08 04:58:03;;;;;;;;;43.25;37.50;;;;;7.41;65.89;100653.41;2095678;28;46272;-63